Apalachia Observed Data For Previous 48 Hours

Caption
Day and Hour Reservoir Elevation (behind dam)* Tailwater Elevation (below dam)* Average Hourly Discharge*
3/22/2019 2 AM EDT 1,273.54 841.70 4,830
3/22/2019 3 AM EDT 1,273.19 841.67 4,790
3/22/2019 4 AM EDT 1,273.19 841.67 4,773
3/22/2019 5 AM EDT 1,272.51 841.67 4,740
3/22/2019 6 AM EDT 1,272.15 841.65 4,691
3/22/2019 7 AM EDT 1,272.32 841.62 4,680
3/22/2019 8 AM EDT 1,272.47 841.58 4,698
3/22/2019 9 AM EDT 1,272.72 841.58 4,715
3/22/2019 10 AM EDT 1,273.03 841.60 4,744
3/22/2019 11 AM EDT 1,273.46 841.59 4,777
3/22/2019 12 PM EDT 1,273.70 841.63 4,813
3/22/2019 1 PM EDT 1,273.70 841.63 4,822
3/22/2019 2 PM EDT 1,274.17 841.67 4,845
3/22/2019 3 PM EDT 1,274.01 841.66 4,860
3/22/2019 4 PM EDT 1,273.93 841.67 4,845
3/22/2019 5 PM EDT 1,273.85 841.68 4,841
3/22/2019 6 PM EDT 1,273.73 841.66 4,829
3/22/2019 7 PM EDT 1,273.67 841.67 4,824
3/22/2019 8 PM EDT 1,273.55 841.66 4,812
3/22/2019 9 PM EDT 1,273.93 841.65 4,827
3/22/2019 10 PM EDT 1,274.18 841.66 4,854
3/22/2019 11 PM EDT 1,274.44 841.65 4,881
3/23/2019 12 AM EDT 1,274.71 841.67 4,902
3/23/2019 1 AM EDT 1,274.50 841.68 4,906
3/23/2019 2 AM EDT 1,274.50 841.71 4,893
3/23/2019 3 AM EDT 1,273.75 841.71 4,862
3/23/2019 4 AM EDT 1,273.75 841.70 4,820
3/23/2019 5 AM EDT 1,273.10 841.69 4,797
3/23/2019 6 AM EDT 1,272.73 841.66 4,745
3/23/2019 7 AM EDT 1,272.31 841.65 4,708
3/23/2019 8 AM EDT 1,272.31 841.63 4,688
3/23/2019 9 AM EDT 1,272.72 841.60 4,708
3/23/2019 10 AM EDT 1,273.01 841.59 4,743
3/23/2019 11 AM EDT 1,273.37 841.57 4,772
3/23/2019 12 PM EDT 1,273.37 841.62 4,793
3/23/2019 1 PM EDT 1,273.77 841.62 4,808
3/23/2019 2 PM EDT 1,273.58 841.62 4,819
3/23/2019 3 PM EDT 1,272.97 841.66 4,780
3/23/2019 4 PM EDT 1,272.97 841.66 4,752
3/23/2019 5 PM EDT 1,272.27 841.63 4,716
3/23/2019 6 PM EDT 1,271.58 841.61 4,652
3/23/2019 7 PM EDT 1,271.42 841.60 4,606
3/23/2019 8 PM EDT 1,271.41 841.58 4,599
3/23/2019 9 PM EDT 1,271.82 841.54 4,617
3/23/2019 10 PM EDT 1,272.13 841.54 4,655
3/23/2019 11 PM EDT 1,272.19 841.54 4,671
3/24/2019 12 AM EDT 1,272.24 841.55 4,681
3/24/2019 1 AM EDT 1,272.28 841.55 4,678

Elevations are in feet above sea level. Discharges are in cubic feet per second and are reported at the end of the hour.